createdAt,value
2023-07-18T00:00:06.221Z,98.78
2023-07-18T00:01:46.791Z,98.88
2023-07-18T00:03:27.252Z,98.79
2023-07-18T00:05:07.738Z,98.6
2023-07-18T00:06:48.223Z,98.44
2023-07-18T00:08:28.631Z,98.25
2023-07-18T00:10:08.944Z,98.13
2023-07-18T00:11:49.222Z,98
2023-07-18T00:13:29.550Z,97.86
2023-07-18T00:15:09.884Z,97.72
2023-07-18T00:16:50.305Z,97.6
2023-07-18T00:18:30.776Z,97.35
2023-07-18T00:20:11.172Z,97.21
2023-07-18T00:21:51.650Z,97.26
2023-07-18T00:23:32.064Z,97.37
2023-07-18T00:25:12.570Z,97.33
2023-07-18T00:26:52.952Z,97.3
2023-07-18T00:28:33.427Z,97.32
2023-07-18T00:30:13.843Z,97.43
2023-07-18T00:31:54.254Z,97.52
2023-07-18T00:33:34.725Z,97.58
2023-07-18T00:35:15.215Z,97.54
2023-07-18T00:36:55.709Z,97.61
2023-07-18T00:38:36.041Z,97.77
2023-07-18T00:40:16.539Z,97.64
2023-07-18T00:41:56.802Z,98.01
2023-07-18T00:43:37.231Z,98.44
2023-07-18T00:45:17.755Z,98.66
2023-07-18T00:46:58.245Z,98.82
2023-07-18T00:48:38.716Z,98.87
2023-07-18T00:50:19.317Z,98.96
2023-07-18T00:51:59.690Z,99.16
2023-07-18T00:53:40.039Z,99.16
2023-07-18T00:55:20.477Z,99.16
2023-07-18T00:57:00.881Z,99.06
2023-07-18T00:58:41.351Z,99.05
2023-07-18T01:00:21.789Z,99.05
2023-07-18T01:02:02.157Z,99.02
2023-07-18T01:03:42.621Z,99.04
2023-07-18T01:05:23.000Z,99.19
2023-07-18T01:07:03.468Z,99.33
2023-07-18T01:08:43.851Z,99.49
2023-07-18T01:10:24.397Z,99.55
2023-07-18T01:12:04.726Z,99.57
2023-07-18T01:13:45.164Z,99.6
2023-07-18T01:15:25.717Z,99.58
2023-07-18T01:17:06.124Z,99.56
2023-07-18T01:18:46.603Z,99.54
2023-07-18T01:20:27.051Z,99.53
2023-07-18T01:22:07.472Z,99.56
2023-07-18T01:23:47.885Z,99.6
2023-07-18T01:25:28.197Z,99.67
2023-07-18T01:27:08.480Z,99.74
2023-07-18T01:28:48.879Z,99.77
2023-07-18T01:30:29.299Z,99.79
2023-07-18T01:32:09.710Z,99.83
2023-07-18T01:33:50.229Z,99.87
2023-07-18T01:35:30.649Z,99.89
2023-07-18T01:37:11.122Z,99.91
2023-07-18T01:38:51.538Z,99.9
2023-07-18T01:40:32.035Z,99.91
2023-07-18T01:42:12.467Z,99.9
2023-07-18T01:43:52.915Z,99.89
2023-07-18T01:45:33.348Z,99.84
2023-07-18T01:47:13.899Z,99.83
2023-07-18T01:48:54.376Z,99.81
2023-07-18T01:50:34.766Z,99.77
2023-07-18T01:52:15.190Z,99.73
2023-07-18T01:53:55.603Z,99.71
2023-07-18T01:55:36.000Z,99.73
2023-07-18T01:57:16.442Z,99.7
2023-07-18T01:58:56.893Z,99.64
2023-07-18T02:00:37.396Z,99.64
2023-07-18T02:02:17.837Z,99.64
2023-07-18T02:03:58.244Z,99.63
2023-07-18T02:05:38.541Z,99.58
2023-07-18T02:07:18.846Z,99.58
2023-07-18T02:08:59.147Z,99.55
2023-07-18T02:10:39.451Z,99.52
2023-07-18T02:12:19.742Z,99.43
2023-07-18T02:14:00.223Z,99.42
2023-07-18T02:15:40.628Z,99.33
2023-07-18T02:17:21.036Z,99.21
2023-07-18T02:19:01.477Z,99.09
2023-07-18T02:20:41.844Z,99.03
2023-07-18T02:22:22.353Z,98.88
2023-07-18T02:24:02.735Z,98.71
2023-07-18T02:25:43.170Z,98.7
2023-07-18T02:27:23.622Z,98.75
2023-07-18T02:29:04.047Z,98.82
2023-07-18T02:30:44.570Z,98.86
2023-07-18T02:32:25.050Z,98.87
2023-07-18T02:34:05.381Z,98.92
2023-07-18T02:35:45.842Z,98.96
2023-07-18T02:37:26.233Z,98.95
2023-07-18T02:39:06.564Z,98.89
2023-07-18T02:40:46.976Z,98.61
2023-07-18T02:42:27.432Z,98.42
2023-07-18T02:44:07.848Z,98.3
2023-07-18T02:45:50.609Z,98.14
2023-07-18T02:47:28.694Z,98.14
2023-07-18T02:49:09.106Z,98.07
2023-07-18T02:50:49.492Z,98.04
2023-07-18T02:52:29.939Z,98.05
2023-07-18T02:54:10.356Z,98.14
2023-07-18T02:55:50.845Z,98.51
2023-07-18T02:57:31.304Z,98.58
2023-07-18T02:59:11.726Z,98.57
2023-07-18T03:00:52.099Z,98.45
2023-07-18T03:02:32.721Z,98.34
2023-07-18T03:04:12.906Z,98.39
2023-07-18T03:05:53.338Z,98.46
2023-07-18T03:07:33.645Z,98.71
2023-07-18T03:09:13.923Z,98.96
2023-07-18T03:10:54.318Z,99.09
2023-07-18T03:12:34.757Z,99.18
2023-07-18T03:14:15.127Z,99.15
2023-07-18T03:15:55.560Z,99.18
2023-07-18T03:17:36.064Z,99.16
2023-07-18T03:19:16.533Z,99.14
2023-07-18T03:20:56.999Z,99.09
2023-07-18T03:22:37.518Z,99.07
2023-07-18T03:24:19.430Z,99.03
2023-07-18T03:25:58.468Z,99.01
2023-07-18T03:27:38.914Z,99
2023-07-18T03:29:19.320Z,98.95
2023-07-18T03:30:59.753Z,98.82
2023-07-18T03:32:40.133Z,98.76
2023-07-18T03:34:20.469Z,98.65
2023-07-18T03:36:00.764Z,98.75
2023-07-18T03:37:41.124Z,98.94
2023-07-18T03:39:21.636Z,98.98
2023-07-18T03:41:02.162Z,99.12
2023-07-18T03:42:42.563Z,99.35
2023-07-18T03:44:23.060Z,99.51
2023-07-18T03:46:03.499Z,99.66
2023-07-18T03:47:43.955Z,99.69
2023-07-18T03:49:24.356Z,99.75
2023-07-18T03:51:04.810Z,99.67
2023-07-18T03:52:45.280Z,99.72
2023-07-18T03:54:25.749Z,99.7
2023-07-18T03:56:06.206Z,99.69
2023-07-18T03:57:46.616Z,99.78
2023-07-18T03:59:27.071Z,99.82
2023-07-18T04:01:07.375Z,99.87
2023-07-18T04:02:47.887Z,99.91
2023-07-18T04:04:28.051Z,99.92
2023-07-18T04:06:08.531Z,99.92
2023-07-18T04:07:49.129Z,99.78
2023-07-18T04:09:29.448Z,99.71
2023-07-18T04:11:09.948Z,99.6
2023-07-18T04:12:50.386Z,99.55
2023-07-18T04:14:30.778Z,99.56
2023-07-18T04:16:11.265Z,99.56
2023-07-18T04:17:51.806Z,99.61
2023-07-18T04:19:32.224Z,99.63
2023-07-18T04:21:12.753Z,99.66
2023-07-18T04:22:53.178Z,99.69
2023-07-18T04:24:33.605Z,99.77
2023-07-18T04:26:13.892Z,99.83
2023-07-18T04:27:54.203Z,99.87
2023-07-18T04:29:34.498Z,99.82
2023-07-18T04:31:17.066Z,99.78
2023-07-18T04:32:55.134Z,99.78
2023-07-18T04:34:35.390Z,99.76
2023-07-18T04:36:15.651Z,99.72
2023-07-18T04:37:56.122Z,99.74
2023-07-18T04:39:36.565Z,99.67
2023-07-18T04:41:17.465Z,99.63
2023-07-18T04:42:57.440Z,99.59
2023-07-18T04:44:37.941Z,99.51
2023-07-18T04:46:18.500Z,99.47
2023-07-18T04:47:58.903Z,99.44
2023-07-18T04:49:39.285Z,99.45
2023-07-18T04:51:19.844Z,99.44
2023-07-18T04:53:00.144Z,99.39
2023-07-18T04:54:40.635Z,99.34
2023-07-18T04:56:21.143Z,99.3
2023-07-18T04:58:01.571Z,99.21
2023-07-18T04:59:41.856Z,99.27
2023-07-18T05:01:22.486Z,99.3
2023-07-18T05:03:02.772Z,99.28
2023-07-18T05:04:43.159Z,99.32
2023-07-18T05:06:23.493Z,99.36
2023-07-18T05:08:03.901Z,99.38
2023-07-18T05:09:44.319Z,99.49
2023-07-18T05:11:24.756Z,99.5
2023-07-18T05:13:05.162Z,99.51
2023-07-18T05:14:45.688Z,99.52
2023-07-18T05:16:26.152Z,99.47
2023-07-18T05:18:06.609Z,99.44
2023-07-18T05:19:47.045Z,99.41
2023-07-18T05:21:27.488Z,99.4
2023-07-18T05:23:07.984Z,99.33
2023-07-18T05:24:48.435Z,99.32
2023-07-18T05:26:28.817Z,99.23
2023-07-18T05:28:09.116Z,99.15
2023-07-18T05:29:49.465Z,98.97
2023-07-18T05:31:29.824Z,98.87
2023-07-18T05:33:10.123Z,98.57
2023-07-18T05:34:50.515Z,98.37
2023-07-18T05:36:30.965Z,98.08
2023-07-18T05:38:11.515Z,97.66
2023-07-18T05:39:51.960Z,97.47
2023-07-18T05:41:32.401Z,97.4
2023-07-18T05:43:12.909Z,97.35
2023-07-18T05:44:53.331Z,97.05
2023-07-18T05:46:33.823Z,96.87
2023-07-18T05:48:14.300Z,96.65
2023-07-18T05:49:54.631Z,96.59
2023-07-18T05:51:35.116Z,96.27
2023-07-18T05:53:15.500Z,95.87
2023-07-18T05:54:55.899Z,95.86
2023-07-18T05:56:36.379Z,95.55
2023-07-18T05:58:16.850Z,94.36
2023-07-18T05:59:57.338Z,93.98
2023-07-18T06:01:37.737Z,93.16
2023-07-18T06:03:18.208Z,92.98
2023-07-18T06:04:58.662Z,92.26
2023-07-18T06:06:39.061Z,91.26
2023-07-18T06:08:19.506Z,89.97
2023-07-18T06:09:59.997Z,90.28
2023-07-18T06:11:40.359Z,89.64
2023-07-18T06:13:20.871Z,88.19
2023-07-18T06:15:01.244Z,88.13
2023-07-18T06:16:41.625Z,87.67
2023-07-18T06:18:22.146Z,87.42
2023-07-18T06:20:02.483Z,87.19
2023-07-18T06:21:42.891Z,85.44
2023-07-18T06:23:23.418Z,85.59
2023-07-18T06:25:03.930Z,85.55
2023-07-18T06:26:44.397Z,84.23
2023-07-18T06:28:24.868Z,84.46
2023-07-18T06:30:05.358Z,84.06
2023-07-18T06:31:45.761Z,84.45
2023-07-18T06:33:26.043Z,83.63
2023-07-18T06:35:22.411Z,82.24
2023-07-18T06:36:47.231Z,81.76
2023-07-18T06:38:27.147Z,81.52
2023-07-18T06:40:07.579Z,81.04
2023-07-18T06:41:48.034Z,80.66
2023-07-18T06:43:28.480Z,80.22
2023-07-18T06:45:08.927Z,79.72
2023-07-18T06:46:49.453Z,79.71
2023-07-18T06:48:29.869Z,79.24
2023-07-18T06:50:10.276Z,78.63
2023-07-18T06:51:50.830Z,79
2023-07-18T06:53:31.260Z,77.85
2023-07-18T06:55:11.764Z,77.66
2023-07-18T06:56:51.928Z,76.82
2023-07-18T06:58:32.205Z,77.97
2023-07-18T07:00:12.674Z,76.9
2023-07-18T07:01:53.107Z,75.98
2023-07-18T07:03:33.695Z,75.47
2023-07-18T07:05:14.026Z,75.1
2023-07-18T07:06:54.384Z,75.06
2023-07-18T07:08:34.824Z,74.15
2023-07-18T07:10:15.204Z,73.26
2023-07-18T07:11:55.750Z,72.68
2023-07-18T07:13:36.112Z,71.85
2023-07-18T07:15:16.434Z,71.56
2023-07-18T07:16:56.870Z,72.06
2023-07-18T07:18:37.248Z,70.99
2023-07-18T07:20:17.733Z,72.31
2023-07-18T07:21:58.174Z,69.84
2023-07-18T07:23:38.665Z,70.49
2023-07-18T07:25:19.128Z,69.54
2023-07-18T07:26:59.642Z,68.49
2023-07-18T07:28:40.103Z,68.86
2023-07-18T07:30:20.514Z,68.61
2023-07-18T07:32:01.000Z,67.36
2023-07-18T07:33:41.461Z,65.15
2023-07-18T07:35:21.869Z,65.84
2023-07-18T07:37:02.212Z,64.82
2023-07-18T07:38:42.609Z,63.97
2023-07-18T07:40:23.046Z,65.94
2023-07-18T07:42:03.528Z,63.48
2023-07-18T07:43:43.912Z,63.27
2023-07-18T07:45:24.423Z,62.5
2023-07-18T07:47:04.830Z,62.43
2023-07-18T07:48:45.310Z,62.33
2023-07-18T07:50:25.746Z,60.33
2023-07-18T07:52:06.187Z,60.07
2023-07-18T07:53:46.614Z,60.37
2023-07-18T07:55:26.963Z,59.87
2023-07-18T07:57:07.383Z,58.69
2023-07-18T07:58:57.428Z,57.71
2023-07-18T08:00:28.247Z,56.88
2023-07-18T08:02:08.617Z,56.5
2023-07-18T08:03:48.849Z,55.64
2023-07-18T08:05:29.235Z,56.94
2023-07-18T08:07:11.714Z,56.47
2023-07-18T08:08:50.109Z,54.91
2023-07-18T08:10:30.546Z,54.31
2023-07-18T08:12:11.017Z,56.61
2023-07-18T08:13:51.447Z,53.5
2023-07-18T08:15:31.853Z,52.46
2023-07-18T08:17:12.438Z,51.91
2023-07-18T08:18:52.911Z,51.17
2023-07-18T08:20:33.393Z,53.34
2023-07-18T08:22:13.809Z,51.4
2023-07-18T08:23:54.289Z,49.09
2023-07-18T08:25:34.571Z,51.7
2023-07-18T08:27:14.866Z,52.54
2023-07-18T08:28:55.231Z,50.36
2023-07-18T08:30:35.443Z,49.45
2023-07-18T08:32:15.764Z,51.3
2023-07-18T08:33:56.267Z,49.87
2023-07-18T08:35:36.706Z,47.84
2023-07-18T08:37:17.141Z,48.98
2023-07-18T08:38:57.611Z,47.66
2023-07-18T08:40:38.071Z,46.75
2023-07-18T08:42:18.516Z,45.99
2023-07-18T08:43:58.992Z,48.51
2023-07-18T08:45:39.447Z,46.9
2023-07-18T08:47:19.900Z,47.33
2023-07-18T08:49:00.467Z,44.12
2023-07-18T08:50:40.842Z,44.15
2023-07-18T08:52:21.171Z,45.14
2023-07-18T08:54:01.455Z,44.53
2023-07-18T08:55:41.877Z,46.42
2023-07-18T08:57:22.312Z,48.02
2023-07-18T08:59:02.772Z,43.81
2023-07-18T09:00:43.242Z,43.48
2023-07-18T09:02:23.717Z,43.44
2023-07-18T09:04:04.166Z,41.95
2023-07-18T09:05:44.486Z,42.55
2023-07-18T09:07:25.006Z,41.38
2023-07-18T09:09:05.373Z,43.27
2023-07-18T09:10:45.817Z,43.96
2023-07-18T09:12:26.256Z,43.25
2023-07-18T09:14:06.648Z,43.85
2023-07-18T09:15:47.222Z,43.01
2023-07-18T09:17:27.817Z,41.52
2023-07-18T09:19:08.166Z,41.44
2023-07-18T09:20:48.675Z,44.08
2023-07-18T09:22:29.178Z,40.07
2023-07-18T09:24:09.502Z,39.9
2023-07-18T09:25:49.843Z,41.37
2023-07-18T09:27:30.255Z,40.68
2023-07-18T09:29:10.763Z,38.05
2023-07-18T09:30:51.155Z,37.9
2023-07-18T09:32:31.641Z,38.55
2023-07-18T09:34:12.081Z,37.87
2023-07-18T09:35:52.538Z,38.2
2023-07-18T09:37:32.976Z,34.93
2023-07-18T09:39:13.467Z,37.63
2023-07-18T09:40:53.950Z,35.21
2023-07-18T09:42:34.414Z,37.3
2023-07-18T09:44:31.477Z,40.65
2023-07-18T09:45:55.267Z,38.07
2023-07-18T09:47:35.728Z,39.38
2023-07-18T09:49:16.116Z,38.45
2023-07-18T09:50:56.591Z,34.93
2023-07-18T09:52:37.060Z,35.18
2023-07-18T09:54:17.518Z,37.9
2023-07-18T09:55:57.997Z,33.73
2023-07-18T09:57:38.379Z,33.62
2023-07-18T09:59:18.925Z,33.18
2023-07-18T10:00:59.436Z,33.67
2023-07-18T10:02:39.891Z,34.78
2023-07-18T10:04:20.231Z,33.44
2023-07-18T10:06:00.630Z,32.59
2023-07-18T10:07:40.913Z,34.92
2023-07-18T10:09:21.240Z,34.69
2023-07-18T10:11:01.630Z,32.97
2023-07-18T10:12:41.940Z,34.44
2023-07-18T10:14:22.384Z,33.37
2023-07-18T10:16:02.891Z,35.55
2023-07-18T10:17:43.460Z,33.93
2023-07-18T10:19:23.834Z,33.55
2023-07-18T10:21:04.261Z,33.44
2023-07-18T10:22:44.743Z,32.98
2023-07-18T10:24:25.222Z,34.41
2023-07-18T10:26:07.480Z,33.03
2023-07-18T10:27:46.008Z,35.95
2023-07-18T10:29:26.434Z,36.5
2023-07-18T10:31:06.916Z,32.66
2023-07-18T10:32:47.395Z,31.53
2023-07-18T10:34:27.826Z,34.11
2023-07-18T10:36:08.159Z,31.17
2023-07-18T10:37:48.625Z,31.03
2023-07-18T10:39:29.041Z,31.28
2023-07-18T10:41:09.496Z,31.59
2023-07-18T10:42:49.902Z,31.43
2023-07-18T10:44:30.318Z,32.01
2023-07-18T10:46:10.749Z,32.71
2023-07-18T10:47:51.198Z,33.35
2023-07-18T10:49:31.655Z,32.06
2023-07-18T10:51:12.177Z,33.46
2023-07-18T10:52:52.549Z,34.53
2023-07-18T10:54:32.980Z,32.79
2023-07-18T10:56:13.541Z,32.65
2023-07-18T10:57:53.840Z,34.22
2023-07-18T10:59:34.160Z,36.71
2023-07-18T11:01:14.624Z,35.28
2023-07-18T11:02:55.028Z,34.04
2023-07-18T11:04:35.386Z,34.45
2023-07-18T11:06:15.851Z,36.55
2023-07-18T11:07:56.331Z,35.9
2023-07-18T11:09:36.805Z,35.76
2023-07-18T11:11:17.445Z,36.36
2023-07-18T11:12:57.694Z,36.59
2023-07-18T11:14:38.161Z,37.41
2023-07-18T11:16:18.682Z,36.51
2023-07-18T11:17:59.148Z,39.18
2023-07-18T11:19:39.662Z,37.94
2023-07-18T11:21:20.710Z,38.13
2023-07-18T11:23:00.530Z,38.45
2023-07-18T11:24:40.940Z,38.52
2023-07-18T11:26:21.496Z,37.25
2023-07-18T11:28:01.994Z,38.66
2023-07-18T11:29:42.390Z,38.2
2023-07-18T11:31:38.825Z,38.75
2023-07-18T11:33:03.203Z,38.04
2023-07-18T11:34:43.667Z,37.89
2023-07-18T11:36:24.164Z,37.29
2023-07-18T11:38:04.601Z,36.67
2023-07-18T11:39:45.114Z,35.65
2023-07-18T11:41:25.419Z,35.83
2023-07-18T11:43:05.885Z,36.59
2023-07-18T11:44:46.362Z,37.39
2023-07-18T11:46:26.902Z,36.34
2023-07-18T11:48:07.433Z,35.36
2023-07-18T11:49:47.830Z,38.3
2023-07-18T11:51:28.267Z,35.7
2023-07-18T11:53:08.759Z,34.8
2023-07-18T11:54:49.215Z,36.17
2023-07-18T11:56:29.620Z,35.07
2023-07-18T11:58:10.069Z,36.86
2023-07-18T11:59:50.569Z,36.8
2023-07-18T12:01:31.004Z,37.63
2023-07-18T12:03:11.496Z,38.06
2023-07-18T12:04:51.925Z,36.55
2023-07-18T12:06:32.361Z,40.73
2023-07-18T12:08:12.867Z,38.32
2023-07-18T12:09:53.402Z,41.8
2023-07-18T12:11:33.885Z,39.24
2023-07-18T12:13:14.308Z,37.56
2023-07-18T12:14:54.747Z,36.8
2023-07-18T12:16:35.267Z,37.9
2023-07-18T12:18:15.704Z,39.37
2023-07-18T12:19:56.092Z,38.95
2023-07-18T12:21:36.431Z,39.08
2023-07-18T12:23:16.732Z,39.15
2023-07-18T12:24:57.110Z,38.16
2023-07-18T12:26:37.576Z,38.61
2023-07-18T12:28:18.037Z,38.17
2023-07-18T12:29:58.594Z,36.75
2023-07-18T12:31:39.162Z,37.38
2023-07-18T12:33:19.603Z,35.83
2023-07-18T12:35:00.062Z,37.83
2023-07-18T12:36:40.551Z,36.17
2023-07-18T12:38:23.329Z,33.56
2023-07-18T12:40:01.476Z,34.61
2023-07-18T12:41:41.915Z,32.47
2023-07-18T12:43:22.264Z,40.45
2023-07-18T12:45:02.563Z,34.43
2023-07-18T12:46:42.876Z,31.39
2023-07-18T12:48:23.173Z,31.43
2023-07-18T12:50:03.452Z,32.61
2023-07-18T12:51:43.755Z,31.3
2023-07-18T12:53:24.113Z,35.07
2023-07-18T12:55:04.587Z,34.92
2023-07-18T12:56:45.053Z,32.49
2023-07-18T12:58:25.509Z,30.48
2023-07-18T13:00:05.849Z,32.9
2023-07-18T13:01:46.397Z,34.05
2023-07-18T13:03:26.881Z,33.07
2023-07-18T13:05:07.281Z,33.14
2023-07-18T13:06:47.735Z,32.1
2023-07-18T13:08:28.197Z,32.21
2023-07-18T13:10:08.666Z,31.34
2023-07-18T13:11:49.033Z,32.46
2023-07-18T13:13:29.468Z,31.93
2023-07-18T13:15:09.945Z,30.73
2023-07-18T13:16:50.314Z,34.59
2023-07-18T13:18:30.532Z,30.96
2023-07-18T13:20:10.828Z,32.28
2023-07-18T13:21:51.166Z,30.45
2023-07-18T13:23:31.415Z,30.76
2023-07-18T13:25:11.761Z,29.75
2023-07-18T13:26:52.184Z,34.11
2023-07-18T13:28:32.620Z,28.86
2023-07-18T13:30:13.038Z,28.7
2023-07-18T13:31:53.521Z,30.05
2023-07-18T13:33:33.962Z,27.9
2023-07-18T13:35:14.321Z,26.04
2023-07-18T13:36:54.800Z,28.51
2023-07-18T13:38:35.607Z,27.06
2023-07-18T13:40:15.741Z,29
2023-07-18T13:41:56.126Z,26.92
2023-07-18T13:43:36.532Z,27.44
2023-07-18T13:45:16.963Z,29.14
2023-07-18T13:46:57.396Z,27.77
2023-07-18T13:48:37.775Z,27.25
2023-07-18T13:50:30.734Z,27.43
2023-07-18T13:51:58.599Z,28.16
2023-07-18T13:53:39.161Z,28.84
2023-07-18T13:55:19.684Z,28.83
2023-07-18T13:57:00.131Z,29.77
2023-07-18T13:58:40.569Z,29.02
2023-07-18T14:00:21.094Z,28.78
2023-07-18T14:02:01.582Z,30.13
2023-07-18T14:03:42.105Z,30.8
2023-07-18T14:05:22.392Z,28.23
2023-07-18T14:07:02.743Z,28.18
2023-07-18T14:08:43.208Z,28.71
2023-07-18T14:10:23.613Z,27.21
2023-07-18T14:12:03.832Z,27.28
2023-07-18T14:13:44.323Z,28.29
2023-07-18T14:15:24.855Z,27.94
2023-07-18T14:17:05.253Z,29.85
2023-07-18T14:18:45.675Z,26.28
2023-07-18T14:20:26.130Z,27.42
2023-07-18T14:22:06.693Z,31.27
2023-07-18T14:23:47.166Z,28.29
2023-07-18T14:25:27.603Z,29.86
2023-07-18T14:27:08.010Z,27.39
2023-07-18T14:28:48.476Z,27.99
2023-07-18T14:30:28.920Z,27.46
2023-07-18T14:32:09.345Z,28.01
2023-07-18T14:34:04.644Z,28.14
2023-07-18T14:35:29.946Z,28.14
2023-07-18T14:37:10.208Z,28.96
2023-07-18T14:38:50.488Z,28.48
2023-07-18T14:40:30.977Z,28.14
2023-07-18T14:42:11.458Z,28.63
2023-07-18T14:43:51.873Z,29.54
2023-07-18T14:45:32.350Z,30.93
2023-07-18T14:47:12.783Z,30.05
2023-07-18T14:48:53.220Z,31.79
2023-07-18T14:50:33.675Z,30.27
2023-07-18T14:52:14.137Z,33.25
2023-07-18T14:53:54.520Z,32.77
2023-07-18T14:55:35.392Z,32.13
2023-07-18T14:57:15.456Z,31.63
2023-07-18T14:58:55.850Z,32.22
2023-07-18T15:00:36.249Z,32.67
2023-07-18T15:02:16.550Z,31.6
2023-07-18T15:03:57.079Z,31.41
2023-07-18T15:05:37.441Z,32.39
2023-07-18T15:07:17.850Z,31.42
2023-07-18T15:08:58.215Z,31.42
2023-07-18T15:10:38.664Z,31.75
2023-07-18T15:12:19.053Z,31.45
2023-07-18T15:13:59.516Z,31.28
2023-07-18T15:15:40.058Z,31.63
2023-07-18T15:17:20.407Z,32.86
2023-07-18T15:19:00.783Z,36.62
2023-07-18T15:20:41.247Z,32.45
2023-07-18T15:22:21.703Z,29.62
2023-07-18T15:24:02.128Z,29.68
2023-07-18T15:25:42.518Z,30.21
2023-07-18T15:27:22.982Z,30.09
2023-07-18T15:29:03.255Z,30.05
2023-07-18T15:30:43.658Z,29.18
2023-07-18T15:32:24.067Z,30.25
2023-07-18T15:34:04.541Z,28.4
2023-07-18T15:35:44.956Z,29.18
2023-07-18T15:37:25.437Z,28.39
2023-07-18T15:39:05.765Z,29
2023-07-18T15:40:46.090Z,29.85
2023-07-18T15:42:26.481Z,27.98
2023-07-18T15:44:06.867Z,28.56
2023-07-18T15:45:47.443Z,27.51
2023-07-18T15:47:27.813Z,28.5
2023-07-18T15:49:08.209Z,28.95
2023-07-18T15:50:48.741Z,29.65
2023-07-18T15:52:29.154Z,30.23
2023-07-18T15:54:09.615Z,31.02
2023-07-18T15:55:51.701Z,30.86
2023-07-18T15:57:30.515Z,31.91
2023-07-18T15:59:11.023Z,31.41
2023-07-18T16:00:51.478Z,31.39
2023-07-18T16:02:33.047Z,32.55
2023-07-18T16:04:12.289Z,30.57
2023-07-18T16:05:52.703Z,30.71
2023-07-18T16:07:33.168Z,31.2
2023-07-18T16:09:13.579Z,31.68
2023-07-18T16:10:54.115Z,31.55
2023-07-18T16:12:34.594Z,28.57
2023-07-18T16:14:15.091Z,29.33
2023-07-18T16:15:55.496Z,28.77
2023-07-18T16:17:35.975Z,29.46
2023-07-18T16:19:16.362Z,30.07
2023-07-18T16:20:56.831Z,29.24
2023-07-18T16:22:37.391Z,30.48
2023-07-18T16:24:17.760Z,32.92
2023-07-18T16:25:58.236Z,28.49
2023-07-18T16:27:38.637Z,31.22
2023-07-18T16:29:18.917Z,30.09
2023-07-18T16:30:59.433Z,30.45
2023-07-18T16:32:39.882Z,29.05
2023-07-18T16:34:20.198Z,29.42
2023-07-18T16:36:00.624Z,29.79
2023-07-18T16:37:41.087Z,29.71
2023-07-18T16:39:21.535Z,31.29
2023-07-18T16:41:02.021Z,30.81
2023-07-18T16:42:42.434Z,30.78
2023-07-18T16:44:22.916Z,31.08
2023-07-18T16:46:03.443Z,31.74
2023-07-18T16:47:43.963Z,31.9
2023-07-18T16:49:24.307Z,31.85
2023-07-18T16:51:04.846Z,30.81
2023-07-18T16:52:45.272Z,30.25
2023-07-18T16:54:25.697Z,30.6
2023-07-18T16:56:06.187Z,29.71
2023-07-18T16:57:46.648Z,29.77
2023-07-18T16:59:27.093Z,29.94
2023-07-18T17:01:07.555Z,30.79
2023-07-18T17:02:48.141Z,31.62
2023-07-18T17:04:28.587Z,31.26
2023-07-18T17:06:09.013Z,31.4
2023-07-18T17:07:49.420Z,31.07
2023-07-18T17:09:29.728Z,30.34
2023-07-18T17:11:10.299Z,30.78
2023-07-18T17:12:50.681Z,30.11
2023-07-18T17:14:31.153Z,30.91
2023-07-18T17:16:11.769Z,30.57
2023-07-18T17:17:52.133Z,31.35
2023-07-18T17:21:13.176Z,31.22
2023-07-18T17:22:53.673Z,31.38
2023-07-18T17:24:34.083Z,31.33
2023-07-18T17:26:14.490Z,31.83
2023-07-18T17:27:54.790Z,31.23
2023-07-18T17:29:35.088Z,32.4
2023-07-18T17:31:15.489Z,32.2
2023-07-18T17:32:55.898Z,31.19
2023-07-18T17:34:36.309Z,31.84
2023-07-18T17:36:16.782Z,32.62
2023-07-18T17:37:57.133Z,32.26
2023-07-18T17:39:37.629Z,32.38
2023-07-18T17:41:18.346Z,32.4
2023-07-18T17:42:58.541Z,32.97
2023-07-18T17:44:39.045Z,33.01
2023-07-18T17:46:22.588Z,33.56
2023-07-18T17:47:59.915Z,33.04
2023-07-18T17:49:40.296Z,33.08
2023-07-18T17:51:21.073Z,32.99
2023-07-18T17:53:01.187Z,33.04
2023-07-18T17:54:41.686Z,33.38
2023-07-18T17:56:22.236Z,34.2
2023-07-18T17:58:02.543Z,34.19
2023-07-18T17:59:43.093Z,34.12
2023-07-18T18:01:23.680Z,34.24
2023-07-18T18:03:03.918Z,34.74
2023-07-18T18:04:44.226Z,34.79
2023-07-18T18:06:24.692Z,34.91
2023-07-18T18:08:05.048Z,34.91
2023-07-18T18:09:45.517Z,35.57
2023-07-18T18:11:25.942Z,35.84
2023-07-18T18:13:06.368Z,36.42
2023-07-18T18:14:46.805Z,36.42
2023-07-18T18:16:27.314Z,36.5
2023-07-18T18:18:07.737Z,35.87
2023-07-18T18:19:48.164Z,36.13
2023-07-18T18:21:28.603Z,37.42
2023-07-18T18:23:13.049Z,36.38
2023-07-18T18:24:49.581Z,36.78
2023-07-18T18:26:30.087Z,37.42
2023-07-18T18:28:10.542Z,38.59
2023-07-18T18:29:50.942Z,38.55
2023-07-18T18:31:34.366Z,38.55
2023-07-18T18:33:11.784Z,39.91
2023-07-18T18:35:06.203Z,39.79
2023-07-18T18:36:32.702Z,40.28
2023-07-18T18:38:13.161Z,41.74
2023-07-18T18:39:53.619Z,40.78
2023-07-18T18:41:34.106Z,41.93
2023-07-18T18:43:14.577Z,42.79
2023-07-18T18:44:54.992Z,42.6
2023-07-18T18:46:35.524Z,43.16
2023-07-18T18:48:15.902Z,43.49
2023-07-18T18:49:56.232Z,44.45
2023-07-18T18:51:36.589Z,45.18
2023-07-18T18:53:18.200Z,44.97
2023-07-18T18:55:08.697Z,44.63
2023-07-18T18:56:38.037Z,46.32
2023-07-18T18:58:18.494Z,46.85
2023-07-18T18:59:58.933Z,47.77
2023-07-18T19:01:39.540Z,48.26
2023-07-18T19:03:19.959Z,49.12
2023-07-18T19:05:00.371Z,49.52
2023-07-18T19:06:40.889Z,50.75
2023-07-18T19:08:21.316Z,51.07
2023-07-18T19:10:01.742Z,51.5
2023-07-18T19:11:42.274Z,52.45
2023-07-18T19:13:22.611Z,53.47
2023-07-18T19:15:03.129Z,54.1
2023-07-18T19:16:43.480Z,55.74
2023-07-18T19:18:23.979Z,55.54
2023-07-18T19:20:04.367Z,56.65
2023-07-18T19:21:44.896Z,57.65
2023-07-18T19:23:25.314Z,58.07
2023-07-18T19:25:05.766Z,59.35
2023-07-18T19:26:46.217Z,59.17
2023-07-18T19:28:26.709Z,60.34
2023-07-18T19:30:07.193Z,60.99
2023-07-18T19:31:47.704Z,60.74
2023-07-18T19:33:28.110Z,61.62
2023-07-18T19:35:08.537Z,62.57
2023-07-18T19:36:48.843Z,63.03
2023-07-18T19:38:29.160Z,63.17
2023-07-18T19:40:09.612Z,63.87
2023-07-18T19:41:50.063Z,64.23
2023-07-18T19:43:30.484Z,63.87
2023-07-18T19:45:10.943Z,65.23
2023-07-18T19:46:51.527Z,65.45
2023-07-18T19:48:31.833Z,65.32
2023-07-18T19:50:12.264Z,65.86
2023-07-18T19:51:52.637Z,67.34
2023-07-18T19:53:36.081Z,68.11
2023-07-18T19:55:13.515Z,68.45
2023-07-18T19:56:53.787Z,69.08
2023-07-18T19:58:34.135Z,69.77
2023-07-18T20:00:14.519Z,69.82
2023-07-18T20:01:55.049Z,70.35
2023-07-18T20:03:47.946Z,70.15
2023-07-18T20:05:16.047Z,71.26
2023-07-18T20:06:56.414Z,70.83
2023-07-18T20:08:36.857Z,70.42
2023-07-18T20:10:17.305Z,70.07
2023-07-18T20:11:57.732Z,70.15
2023-07-18T20:13:38.124Z,70.51
2023-07-18T20:15:18.532Z,70.64
2023-07-18T20:16:59.041Z,70.69
2023-07-18T20:18:39.473Z,70.94
2023-07-18T20:20:19.834Z,72.17
2023-07-18T20:22:00.210Z,72.47
2023-07-18T20:23:40.645Z,72.81
2023-07-18T20:25:21.094Z,73.21
2023-07-18T20:27:01.535Z,73.67
2023-07-18T20:28:41.956Z,73.64
2023-07-18T20:30:22.313Z,73.84
2023-07-18T20:32:02.855Z,74.12
2023-07-18T20:33:43.661Z,74.52
2023-07-18T20:35:23.855Z,74.49
2023-07-18T20:37:04.264Z,74.99
2023-07-18T20:38:44.723Z,75.39
2023-07-18T20:40:25.178Z,75.76
2023-07-18T20:42:05.625Z,76.44
2023-07-18T20:43:45.952Z,76.51
2023-07-18T20:45:26.284Z,76.84
2023-07-18T20:47:06.529Z,77.21
2023-07-18T20:48:47.029Z,77.59
2023-07-18T20:50:27.439Z,77.61
2023-07-18T20:52:07.886Z,77.61
2023-07-18T20:53:48.305Z,78.07
2023-07-18T20:55:28.746Z,77.82
2023-07-18T20:57:09.264Z,78.4
2023-07-18T20:58:49.773Z,79.12
2023-07-18T21:00:30.152Z,79.79
2023-07-18T21:02:10.671Z,79.28
2023-07-18T21:03:51.179Z,79.51
2023-07-18T21:05:31.531Z,79.5
2023-07-18T21:07:11.933Z,79.53
2023-07-18T21:08:52.239Z,79.71
2023-07-18T21:10:32.583Z,80.26
2023-07-18T21:12:13.006Z,80.68
2023-07-18T21:13:53.498Z,81.05
2023-07-18T21:15:34.013Z,80.61
2023-07-18T21:17:14.394Z,80.68
2023-07-18T21:18:54.821Z,80.88
2023-07-18T21:20:35.279Z,80.34
2023-07-18T21:22:15.685Z,80.47
2023-07-18T21:23:56.049Z,80.32
2023-07-18T21:25:36.456Z,80.91
2023-07-18T21:27:17.040Z,81.2
2023-07-18T21:29:04.746Z,81.53
2023-07-18T21:30:38.030Z,81.63
2023-07-18T21:32:18.368Z,81.61
2023-07-18T21:33:58.635Z,82.12
2023-07-18T21:35:38.917Z,82.26
2023-07-18T21:37:19.335Z,83.1
2023-07-18T21:38:59.778Z,83.09